Terminal Aerodrome Forecast
Issued by NWS Albany, NY

Home | Current Version | Previous Version | Text Only | Print | Product List | Glossary On
Versions: 1 2 3 4 5 6 7 8 9 10 11 12 13 14 15 16 17 18 19 20 21 22 23
000
FTUS41 KALY 290530
TAFPOU
TAF
KPOU 290530Z 2906/3006 03005KT P6SM OVC020
     FM290900 05007KT P6SM VCSH OVC015
     FM291400 06009KT P6SM BKN015 OVC025
     FM291800 07011G16KT P6SM BKN040 BKN200
     FM300000 05009KT P6SM BKN150=

USA.gov is the U.S. government's official web portal to all federal, state and local government web resources and services.